createdAt,value
2018-11-10T00:00:08.477Z,8.87
2018-11-10T00:01:12.337Z,8.84
2018-11-10T00:02:19.260Z,8.82
2018-11-10T00:03:22.506Z,8.80
2018-11-10T00:04:28.099Z,8.75
2018-11-10T00:05:31.834Z,8.74
2018-11-10T00:06:34.856Z,8.74
2018-11-10T00:07:38.431Z,8.72
2018-11-10T00:08:42.932Z,8.72
2018-11-10T00:09:45.682Z,8.77
2018-11-10T00:10:49.192Z,8.76
2018-11-10T00:11:52.344Z,8.75
2018-11-10T00:12:55.717Z,8.73
2018-11-10T00:13:59.433Z,8.78
2018-11-10T00:15:02.801Z,8.78
2018-11-10T00:16:05.536Z,8.76
2018-11-10T00:17:08.518Z,8.79
2018-11-10T00:18:14.543Z,8.76
2018-11-10T00:19:19.942Z,8.77
2018-11-10T00:20:22.638Z,8.76
2018-11-10T00:21:29.582Z,8.79
2018-11-10T00:22:33.779Z,8.84
2018-11-10T00:23:37.826Z,8.84
2018-11-10T00:24:41.732Z,8.83
2018-11-10T00:25:45.547Z,8.77
2018-11-10T00:26:48.267Z,8.76
2018-11-10T00:27:51.864Z,8.76
2018-11-10T00:28:55.216Z,8.78
2018-11-10T00:29:58.828Z,8.79
2018-11-10T00:31:02.261Z,8.78
2018-11-10T00:32:06.437Z,8.71
2018-11-10T00:33:09.147Z,8.74
2018-11-10T00:34:13.218Z,8.79
2018-11-10T00:35:16.034Z,8.84
2018-11-10T00:36:19.941Z,8.79
2018-11-10T00:37:22.652Z,8.76
2018-11-10T00:38:28.473Z,8.77
2018-11-10T00:39:32.893Z,8.76
2018-11-10T00:40:36.746Z,8.82
2018-11-10T00:41:39.832Z,8.82
2018-11-10T00:42:44.110Z,8.82
2018-11-10T00:43:48.702Z,8.80
2018-11-10T00:44:52.315Z,8.77
2018-11-10T00:45:56.406Z,8.75
2018-11-10T00:47:00.129Z,8.67
2018-11-10T00:49:11.546Z,8.74
2018-11-10T00:50:14.709Z,8.93
2018-11-10T00:51:17.511Z,8.90
2018-11-10T00:52:21.254Z,8.84
2018-11-10T00:53:24.250Z,8.81
2018-11-10T00:54:27.156Z,8.80
2018-11-10T00:55:30.776Z,8.84
2018-11-10T00:56:39.199Z,8.83
2018-11-10T00:57:42.406Z,8.90
2018-11-10T00:58:46.667Z,8.97
2018-11-10T00:59:49.687Z,8.95
2018-11-10T01:00:53.643Z,8.99
2018-11-10T01:01:57.255Z,8.95
2018-11-10T01:02:59.996Z,9.00
2018-11-10T01:04:03.529Z,9.02
2018-11-10T01:05:06.255Z,9.00
2018-11-10T01:06:11.383Z,8.99
2018-11-10T01:07:14.245Z,9.03
2018-11-10T01:08:18.156Z,9.03
2018-11-10T01:09:21.427Z,9.01
2018-11-10T01:10:24.971Z,9.07
2018-11-10T01:11:29.336Z,9.12
2018-11-10T01:12:32.508Z,9.08
2018-11-10T01:13:35.188Z,9.09
2018-11-10T01:14:37.940Z,9.08
2018-11-10T01:15:41.479Z,9.09
2018-11-10T01:16:44.212Z,9.11
2018-11-10T01:19:21.475Z,9.05
2018-11-10T01:20:24.995Z,9.00
2018-11-10T01:21:28.362Z,9.00
2018-11-10T01:22:31.699Z,8.99
2018-11-10T01:23:36.211Z,8.99
2018-11-10T01:24:44.556Z,8.98
2018-11-10T01:25:48.331Z,9.02
2018-11-10T01:26:53.037Z,9.00
2018-11-10T01:27:57.335Z,9.00
2018-11-10T01:29:00.542Z,8.98
2018-11-10T01:30:03.640Z,8.96
2018-11-10T01:31:08.192Z,8.94
2018-11-10T01:32:17.335Z,8.93
2018-11-10T01:33:21.040Z,8.93
2018-11-10T01:34:23.732Z,8.92
2018-11-10T01:35:26.416Z,8.93
2018-11-10T01:36:29.716Z,8.89
2018-11-10T01:37:33.164Z,8.89
2018-11-10T01:38:37.788Z,8.83
2018-11-10T01:39:40.488Z,8.79
2018-11-10T01:40:44.088Z,8.77
2018-11-10T01:41:48.068Z,8.77
2018-11-10T01:42:51.382Z,8.78
2018-11-10T01:43:54.395Z,8.80
2018-11-10T01:44:57.150Z,8.79
2018-11-10T01:46:01.060Z,8.77
2018-11-10T01:47:05.526Z,8.75
2018-11-10T01:48:08.243Z,8.79
2018-11-10T01:49:11.568Z,8.74
2018-11-10T01:50:14.650Z,8.76
2018-11-10T01:51:17.388Z,8.72
2018-11-10T01:52:20.076Z,8.70
2018-11-10T01:53:22.779Z,8.72
2018-11-10T01:54:26.709Z,8.75
2018-11-10T01:55:33.083Z,8.75
2018-11-10T01:56:36.079Z,8.72
2018-11-10T01:57:38.812Z,8.71
2018-11-10T01:58:42.521Z,8.70
2018-11-10T01:59:45.252Z,8.68
2018-11-10T02:00:48.142Z,8.67
2018-11-10T02:01:50.915Z,8.68
2018-11-10T02:02:54.279Z,8.70
2018-11-10T02:03:58.511Z,8.73
2018-11-10T02:05:01.509Z,8.75
2018-11-10T02:06:04.491Z,8.73
2018-11-10T02:07:09.341Z,8.78
2018-11-10T02:08:13.596Z,8.82
2018-11-10T02:09:16.915Z,8.83
2018-11-10T02:10:19.810Z,8.87
2018-11-10T02:11:23.740Z,8.91
2018-11-10T02:12:28.302Z,8.92
2018-11-10T02:13:32.759Z,8.96
2018-11-10T02:14:37.089Z,9.00
2018-11-10T02:15:41.315Z,9.00
2018-11-10T02:16:44.077Z,9.03
2018-11-10T02:17:47.027Z,9.07
2018-11-10T02:18:49.786Z,9.04
2018-11-10T02:19:52.965Z,9.03
2018-11-10T02:20:56.375Z,9.00
2018-11-10T02:21:59.969Z,8.99
2018-11-10T02:23:03.831Z,8.99
2018-11-10T02:24:06.614Z,8.97
2018-11-10T02:25:12.416Z,9.04
2018-11-10T02:26:16.325Z,9.03
2018-11-10T02:27:23.690Z,9.03
2018-11-10T02:28:28.301Z,9.01
2018-11-10T02:29:31.068Z,9.01
2018-11-10T02:30:35.364Z,8.99
2018-11-10T02:31:38.252Z,8.97
2018-11-10T02:32:42.036Z,8.98
2018-11-10T02:33:44.777Z,9.04
2018-11-10T02:34:47.874Z,9.02
2018-11-10T02:35:51.283Z,9.03
2018-11-10T02:36:54.027Z,9.03
2018-11-10T02:37:57.987Z,9.02
2018-11-10T02:39:00.880Z,9.04
2018-11-10T02:40:04.889Z,9.05
2018-11-10T02:42:16.746Z,9.09
2018-11-10T02:43:21.059Z,9.11
2018-11-10T02:44:24.508Z,9.12
2018-11-10T02:45:28.097Z,9.12
2018-11-10T02:46:31.732Z,9.12
2018-11-10T02:47:34.738Z,9.15
2018-11-10T02:48:38.828Z,9.16
2018-11-10T02:49:42.510Z,9.20
2018-11-10T02:50:45.250Z,9.19
2018-11-10T02:51:48.928Z,9.14
2018-11-10T02:52:53.397Z,9.14
2018-11-10T02:53:56.708Z,9.15
2018-11-10T02:54:59.477Z,9.13
2018-11-10T02:56:02.263Z,9.12
2018-11-10T02:57:05.005Z,9.10
2018-11-10T02:58:07.734Z,9.07
2018-11-10T02:59:10.476Z,9.04
2018-11-10T03:00:14.689Z,9.02
2018-11-10T03:01:17.410Z,9.02
2018-11-10T03:02:21.343Z,8.99
2018-11-10T03:03:24.448Z,8.99
2018-11-10T03:04:27.712Z,9.03
2018-11-10T03:05:31.747Z,9.00
2018-11-10T03:06:34.838Z,8.98
2018-11-10T03:07:37.941Z,8.99
2018-11-10T03:08:41.194Z,8.99
2018-11-10T03:09:44.505Z,8.99
2018-11-10T03:10:47.284Z,8.96
2018-11-10T03:11:50.047Z,8.94
2018-11-10T03:12:53.102Z,8.93
2018-11-10T03:13:55.883Z,8.98
2018-11-10T03:14:59.396Z,8.98
2018-11-10T03:16:02.173Z,8.94
2018-11-10T03:17:04.899Z,8.92
2018-11-10T03:18:08.528Z,8.96
2018-11-10T03:19:11.537Z,8.98
2018-11-10T03:20:15.388Z,9.00
2018-11-10T03:21:18.265Z,9.03
2018-11-10T03:22:21.026Z,9.05
2018-11-10T03:23:24.338Z,9.05
2018-11-10T03:24:27.134Z,9.05
2018-11-10T03:25:30.302Z,9.05
2018-11-10T03:26:33.159Z,8.99
2018-11-10T03:27:37.778Z,8.99
2018-11-10T03:28:42.720Z,9.02
2018-11-10T03:29:45.568Z,9.02
2018-11-10T03:30:48.817Z,9.04
2018-11-10T03:31:54.853Z,9.04
2018-11-10T03:32:58.182Z,9.03
2018-11-10T03:34:01.607Z,9.03
2018-11-10T03:35:04.363Z,9.08
2018-11-10T03:36:07.472Z,9.10
2018-11-10T03:37:10.565Z,9.12
2018-11-10T03:38:14.157Z,9.12
2018-11-10T03:39:18.173Z,9.13
2018-11-10T03:40:23.187Z,9.12
2018-11-10T03:41:26.352Z,9.11
2018-11-10T03:42:29.560Z,9.10
2018-11-10T03:43:32.846Z,9.10
2018-11-10T03:44:37.072Z,9.12
2018-11-10T03:45:41.679Z,9.14
2018-11-10T03:46:45.277Z,9.14
2018-11-10T03:47:48.782Z,9.14
2018-11-10T03:48:53.169Z,9.13
2018-11-10T03:49:56.333Z,9.11
2018-11-10T03:50:59.444Z,9.10
2018-11-10T03:52:02.322Z,9.12
2018-11-10T03:53:05.054Z,9.11
2018-11-10T03:54:08.046Z,9.12
2018-11-10T03:55:11.044Z,9.18
2018-11-10T03:56:13.786Z,9.16
2018-11-10T03:57:16.844Z,9.13
2018-11-10T03:58:19.648Z,9.13
2018-11-10T03:59:22.631Z,9.13
2018-11-10T04:00:26.618Z,9.13
2018-11-10T04:01:29.572Z,9.11
2018-11-10T04:02:33.461Z,9.10
2018-11-10T04:03:37.965Z,9.07
2018-11-10T04:04:43.824Z,9.09
2018-11-10T04:05:47.028Z,9.14
2018-11-10T04:06:50.021Z,9.13
2018-11-10T04:07:52.874Z,9.13
2018-11-10T04:08:56.522Z,9.10
2018-11-10T04:10:00.333Z,9.10
2018-11-10T04:11:03.978Z,9.11
2018-11-10T04:12:07.882Z,9.12
2018-11-10T04:13:10.707Z,9.14
2018-11-10T04:15:24.854Z,9.16
2018-11-10T04:16:27.918Z,9.15
2018-11-10T04:17:30.815Z,9.14
2018-11-10T04:18:34.770Z,9.14
2018-11-10T04:19:37.560Z,9.13
2018-11-10T04:20:40.723Z,9.11
2018-11-10T04:21:43.813Z,9.10
2018-11-10T04:22:46.942Z,9.12
2018-11-10T04:23:49.761Z,9.10
2018-11-10T04:24:53.817Z,9.07
2018-11-10T04:25:57.722Z,9.10
2018-11-10T04:27:01.902Z,9.06
2018-11-10T04:28:05.734Z,9.03
2018-11-10T04:29:09.003Z,9.05
2018-11-10T04:30:12.892Z,9.03
2018-11-10T04:31:15.666Z,8.97
2018-11-10T04:32:18.466Z,9.00
2018-11-10T04:33:21.232Z,8.96
2018-11-10T04:34:24.005Z,8.98
2018-11-10T04:35:27.822Z,8.95
2018-11-10T04:36:30.781Z,8.94
2018-11-10T04:37:37.288Z,8.91
2018-11-10T04:38:40.116Z,8.88
2018-11-10T04:39:44.004Z,8.87
2018-11-10T04:40:47.649Z,8.83
2018-11-10T04:41:52.051Z,8.87
2018-11-10T04:42:54.801Z,8.88
2018-11-10T04:43:57.679Z,8.92
2018-11-10T04:45:00.460Z,8.95
2018-11-10T04:46:03.258Z,8.91
2018-11-10T04:47:06.029Z,8.86
2018-11-10T04:48:10.393Z,8.86
2018-11-10T04:49:13.203Z,8.89
2018-11-10T04:50:16.414Z,8.89
2018-11-10T04:51:21.560Z,8.86
2018-11-10T04:52:24.357Z,8.84
2018-11-10T04:53:28.170Z,8.83
2018-11-10T04:54:31.599Z,8.79
2018-11-10T04:55:35.788Z,8.73
2018-11-10T04:56:38.661Z,8.69
2018-11-10T04:57:41.915Z,8.65
2018-11-10T04:58:44.692Z,8.65
2018-11-10T04:59:47.429Z,8.63
2018-11-10T05:00:50.518Z,8.64
2018-11-10T05:01:53.285Z,8.60
2018-11-10T05:02:57.462Z,8.59
2018-11-10T05:04:01.158Z,8.56
2018-11-10T05:05:03.902Z,8.58
2018-11-10T05:06:06.718Z,8.51
2018-11-10T05:07:10.176Z,8.49
2018-11-10T05:08:13.430Z,8.49
2018-11-10T05:09:16.298Z,8.47
2018-11-10T05:10:19.201Z,8.44
2018-11-10T05:11:22.297Z,8.48
2018-11-10T05:12:25.056Z,8.47
2018-11-10T05:13:29.389Z,8.48
2018-11-10T05:14:33.930Z,8.51
2018-11-10T05:15:37.473Z,8.49
2018-11-10T05:16:41.971Z,8.50
2018-11-10T05:17:44.743Z,8.54
2018-11-10T05:18:47.598Z,8.57
2018-11-10T05:19:50.889Z,8.55
2018-11-10T05:20:54.328Z,8.57
2018-11-10T05:22:00.082Z,8.59
2018-11-10T05:23:02.826Z,8.55
2018-11-10T05:24:06.908Z,8.59
2018-11-10T05:25:12.747Z,8.58
2018-11-10T05:26:16.128Z,8.55
2018-11-10T05:27:19.837Z,8.57
2018-11-10T05:28:23.963Z,8.60
2018-11-10T05:29:27.523Z,8.57
2018-11-10T05:30:30.282Z,8.57
2018-11-10T05:31:34.602Z,8.58
2018-11-10T05:32:37.730Z,8.57
2018-11-10T05:33:40.506Z,8.58
2018-11-10T05:34:43.763Z,8.59
2018-11-10T05:35:46.608Z,8.57
2018-11-10T05:36:49.972Z,8.55
2018-11-10T05:37:53.426Z,8.58
2018-11-10T05:38:58.666Z,8.56
2018-11-10T05:40:01.517Z,8.58
2018-11-10T05:41:04.274Z,8.54
2018-11-10T05:42:07.258Z,8.55
2018-11-10T05:43:10.494Z,8.58
2018-11-10T05:44:13.256Z,8.61
2018-11-10T05:45:16.431Z,8.61
2018-11-10T05:46:19.318Z,8.64
2018-11-10T05:47:22.871Z,8.66
2018-11-10T05:48:27.066Z,8.69
2018-11-10T05:49:30.326Z,8.75
2018-11-10T05:50:33.920Z,8.79
2018-11-10T05:51:39.118Z,8.80
2018-11-10T05:52:42.826Z,8.79
2018-11-10T05:53:45.830Z,8.82
2018-11-10T05:54:48.696Z,8.85
2018-11-10T05:55:51.433Z,8.85
2018-11-10T05:56:55.846Z,8.83
2018-11-10T05:57:59.329Z,8.83
2018-11-10T05:59:02.081Z,8.84
2018-11-10T06:00:05.412Z,8.85
2018-11-10T06:01:09.998Z,8.87
2018-11-10T06:02:14.287Z,8.89
2018-11-10T06:03:18.738Z,8.89
2018-11-10T06:04:22.794Z,8.91
2018-11-10T06:05:26.179Z,8.88
2018-11-10T06:06:29.261Z,8.88
2018-11-10T06:07:32.052Z,8.90
2018-11-10T06:08:36.559Z,8.91
2018-11-10T06:09:39.426Z,8.90
2018-11-10T06:10:42.576Z,8.90
2018-11-10T06:11:45.535Z,8.96
2018-11-10T06:12:50.332Z,9.01
2018-11-10T06:13:56.332Z,9.04
2018-11-10T06:14:59.685Z,9.03
2018-11-10T06:16:02.479Z,9.01
2018-11-10T06:17:05.533Z,9.00
2018-11-10T06:18:08.611Z,9.01
2018-11-10T06:19:11.604Z,9.02
2018-11-10T06:20:14.890Z,9.05
2018-11-10T06:21:17.625Z,9.08
2018-11-10T06:22:21.405Z,9.03
2018-11-10T06:23:25.438Z,9.04
2018-11-10T06:24:30.197Z,9.05
2018-11-10T06:25:33.261Z,9.06
2018-11-10T06:26:36.393Z,9.04
2018-11-10T06:27:39.260Z,9.08
2018-11-10T06:28:42.026Z,9.06
2018-11-10T06:29:44.760Z,9.10
2018-11-10T06:30:49.079Z,9.10
2018-11-10T06:45:24.265Z,9.05
2018-11-10T06:46:27.751Z,9.04
2018-11-10T06:47:30.514Z,9.03
2018-11-10T06:48:33.588Z,9.03
2018-11-10T06:49:38.343Z,8.96
2018-11-10T06:50:41.361Z,8.98
2018-11-10T06:51:45.307Z,8.98
2018-11-10T06:52:49.018Z,8.94
2018-11-10T06:53:51.790Z,8.98
2018-11-10T06:54:56.043Z,8.96
2018-11-10T06:55:58.799Z,8.95
2018-11-10T06:57:01.844Z,8.90
2018-11-10T06:58:04.633Z,8.84
2018-11-10T06:59:07.532Z,8.85
2018-11-10T07:00:11.233Z,8.82
2018-11-10T07:01:14.012Z,8.80
2018-11-10T07:02:16.770Z,8.82
2018-11-10T07:03:20.955Z,8.81
2018-11-10T07:04:27.178Z,8.82
2018-11-10T07:05:30.409Z,8.82
2018-11-10T07:06:35.973Z,8.80
2018-11-10T07:07:39.258Z,8.77
2018-11-10T07:08:46.623Z,8.77
2018-11-10T07:09:50.962Z,8.80
2018-11-10T07:10:55.204Z,8.81
2018-11-10T07:11:58.024Z,8.87
2018-11-10T07:13:04.490Z,8.93
2018-11-10T07:14:07.433Z,8.86
2018-11-10T07:15:10.383Z,8.84
2018-11-10T07:16:15.238Z,8.82
2018-11-10T07:17:18.007Z,8.83
2018-11-10T07:18:21.055Z,8.88
2018-11-10T07:19:25.695Z,8.90
2018-11-10T07:20:29.206Z,8.88
2018-11-10T07:21:32.909Z,8.91
2018-11-10T07:22:35.960Z,8.88
2018-11-10T07:23:39.106Z,8.87
2018-11-10T07:24:43.405Z,8.90
2018-11-10T07:25:46.142Z,8.91
2018-11-10T07:26:53.589Z,8.90
2018-11-10T07:27:57.930Z,8.91
2018-11-10T07:29:00.975Z,8.95
2018-11-10T07:30:04.014Z,8.93
2018-11-10T07:31:06.984Z,8.95
2018-11-10T07:32:13.576Z,8.95
2018-11-10T07:33:16.380Z,8.97
2018-11-10T07:34:20.300Z,8.99
2018-11-10T07:35:24.420Z,8.96
2018-11-10T07:36:27.259Z,8.93
2018-11-10T07:37:30.418Z,8.92
2018-11-10T07:38:33.497Z,8.91
2018-11-10T07:39:39.218Z,8.92
2018-11-10T07:40:42.553Z,8.91
2018-11-10T07:41:45.626Z,8.87
2018-11-10T07:42:51.035Z,8.88
2018-11-10T07:43:54.102Z,8.86
2018-11-10T07:44:56.873Z,8.86
2018-11-10T07:46:03.034Z,8.91
2018-11-10T07:47:07.495Z,8.94
2018-11-10T07:48:12.157Z,8.95
2018-11-10T07:49:16.218Z,8.92
2018-11-10T07:50:19.117Z,8.95
2018-11-10T07:51:23.600Z,8.97
2018-11-10T07:52:26.658Z,9.00
2018-11-10T07:53:30.972Z,9.01
2018-11-10T07:54:34.701Z,9.02
2018-11-10T07:55:38.203Z,9.01
2018-11-10T07:56:42.710Z,8.99
2018-11-10T07:57:45.479Z,8.97
2018-11-10T07:58:50.679Z,8.98
2018-11-10T07:59:55.329Z,9.01
2018-11-10T08:01:01.011Z,9.09
2018-11-10T08:02:04.791Z,9.04
2018-11-10T08:03:07.559Z,9.00
2018-11-10T08:04:13.658Z,9.00
2018-11-10T08:05:18.601Z,8.98
2018-11-10T08:06:22.693Z,8.95
2018-11-10T08:07:26.267Z,8.97
2018-11-10T08:08:31.287Z,9.01
2018-11-10T08:09:34.451Z,9.00
2018-11-10T08:10:38.489Z,8.99
2018-11-10T08:11:42.618Z,9.03
2018-11-10T08:12:45.845Z,9.03
2018-11-10T08:13:48.596Z,9.08
2018-11-10T08:14:53.435Z,9.08
2018-11-10T08:15:56.794Z,9.08
2018-11-10T08:17:02.929Z,9.04
2018-11-10T08:18:05.675Z,9.08
2018-11-10T08:19:09.252Z,9.10
2018-11-10T08:20:16.026Z,9.11
2018-11-10T08:21:20.358Z,9.13
2018-11-10T08:22:25.569Z,9.11
2018-11-10T08:23:28.666Z,9.13
2018-11-10T08:24:32.229Z,9.12
2018-11-10T08:25:36.522Z,9.10
2018-11-10T08:26:40.250Z,9.14
2018-11-10T08:27:46.042Z,9.09
2018-11-10T08:28:49.630Z,9.07
2018-11-10T08:29:53.248Z,9.06
2018-11-10T08:30:56.520Z,9.03
2018-11-10T08:32:00.523Z,9.02
2018-11-10T08:33:08.441Z,9.00
2018-11-10T08:34:11.227Z,8.98
2018-11-10T08:35:14.817Z,9.00
2018-11-10T08:36:18.422Z,8.95
2018-11-10T08:37:21.700Z,8.95
2018-11-10T08:38:24.893Z,8.95
2018-11-10T08:39:27.907Z,8.93
2018-11-10T08:40:30.653Z,8.90
2018-11-10T08:41:34.118Z,8.89
2018-11-10T08:42:41.095Z,8.88
2018-11-10T08:43:47.210Z,8.88
2018-11-10T08:44:50.700Z,8.83
2018-11-10T08:45:53.484Z,8.83
2018-11-10T08:46:56.348Z,8.85
2018-11-10T08:48:00.567Z,8.85
2018-11-10T08:49:06.903Z,8.82
2018-11-10T08:50:14.458Z,8.85
2018-11-10T08:51:21.645Z,8.82
2018-11-10T08:53:36.497Z,8.78
2018-11-10T08:54:39.531Z,8.78
2018-11-10T08:56:05.325Z,8.79
2018-11-10T08:57:08.241Z,8.80
2018-11-10T08:58:11.420Z,8.79
2018-11-10T08:59:15.098Z,8.81
2018-11-10T09:00:18.238Z,8.84
2018-11-10T09:01:21.139Z,8.81
2018-11-10T09:02:26.385Z,8.81
2018-11-10T09:03:29.826Z,8.79
2018-11-10T09:04:33.258Z,8.79
2018-11-10T09:05:36.029Z,8.80
2018-11-10T09:06:39.832Z,8.77
2018-11-10T09:07:47.607Z,8.77
2018-11-10T09:08:51.858Z,8.76
2018-11-10T09:09:54.775Z,8.76
2018-11-10T09:10:57.518Z,8.73
2018-11-10T09:12:00.719Z,8.76
2018-11-10T09:13:18.890Z,8.76
2018-11-10T09:14:22.190Z,8.74
2018-11-10T09:15:25.945Z,8.74
2018-11-10T09:16:29.504Z,8.69
2018-11-10T09:17:33.399Z,8.69
2018-11-10T09:18:36.960Z,8.74
2018-11-10T09:19:40.024Z,8.73
2018-11-10T09:20:43.778Z,8.71
2018-11-10T09:21:46.619Z,8.74
2018-11-10T09:22:51.660Z,8.73
2018-11-10T09:23:55.852Z,8.74
2018-11-10T09:24:59.257Z,8.75
2018-11-10T09:26:03.256Z,8.77
2018-11-10T09:27:06.550Z,8.76
2018-11-10T09:28:10.978Z,8.78
2018-11-10T09:29:13.750Z,8.77
2018-11-10T09:30:18.236Z,8.80
2018-11-10T09:31:21.922Z,8.77
2018-11-10T09:32:26.249Z,8.77
2018-11-10T09:33:30.402Z,8.79
2018-11-10T09:34:35.183Z,8.76
2018-11-10T09:35:37.936Z,8.76
2018-11-10T09:36:42.924Z,8.76
2018-11-10T09:37:45.681Z,8.78
2018-11-10T09:38:50.603Z,8.79
2018-11-10T09:39:56.673Z,8.80
2018-11-10T09:40:59.654Z,8.81
2018-11-10T09:42:02.993Z,8.82
2018-11-10T09:43:05.868Z,8.81
2018-11-10T09:44:09.258Z,8.79
2018-11-10T09:45:14.242Z,8.81
2018-11-10T09:46:19.920Z,8.80
2018-11-10T09:47:23.307Z,8.82
2018-11-10T09:48:26.108Z,8.85
2018-11-10T09:49:29.817Z,8.84
2018-11-10T09:50:33.230Z,8.82
2018-11-10T09:51:37.310Z,8.81
2018-11-10T09:52:45.930Z,8.82
2018-11-10T09:53:50.670Z,8.81
2018-11-10T09:54:54.619Z,8.82
2018-11-10T09:55:57.465Z,8.86
2018-11-10T09:57:00.337Z,8.84
2018-11-10T09:58:03.391Z,8.86
2018-11-10T09:59:06.633Z,8.84
2018-11-10T10:00:09.375Z,8.84
2018-11-10T10:01:17.090Z,8.84
2018-11-10T10:02:22.299Z,8.83
2018-11-10T10:03:26.506Z,8.83
2018-11-10T10:04:30.307Z,8.87
2018-11-10T10:05:36.862Z,8.94
2018-11-10T10:06:40.560Z,8.95
2018-11-10T10:07:45.112Z,8.98
2018-11-10T10:08:48.573Z,9.03
2018-11-10T10:09:52.590Z,9.04
2018-11-10T10:10:59.399Z,9.10
2018-11-10T10:12:02.620Z,9.06
2018-11-10T10:13:06.412Z,9.05
2018-11-10T10:14:12.266Z,9.03
2018-11-10T10:15:16.476Z,9.07
2018-11-10T10:16:20.159Z,9.13
2018-11-10T10:17:23.274Z,9.12
2018-11-10T10:18:27.845Z,9.13
2018-11-10T10:19:31.213Z,9.13
2018-11-10T10:20:34.003Z,9.15
2018-11-10T10:21:38.312Z,9.21
2018-11-10T10:22:41.961Z,9.22
2018-11-10T10:23:46.260Z,9.19
2018-11-10T10:24:50.818Z,9.21
2018-11-10T10:25:54.651Z,9.22
2018-11-10T10:26:57.812Z,9.26
2018-11-10T10:28:00.858Z,9.26
2018-11-10T10:29:05.644Z,9.27
2018-11-10T10:30:09.798Z,9.35
2018-11-10T10:31:13.469Z,9.38
2018-11-10T10:32:19.763Z,9.40
2018-11-10T10:33:24.889Z,9.40
2018-11-10T10:34:27.777Z,9.42
2018-11-10T10:35:30.930Z,9.46
2018-11-10T10:36:34.596Z,9.49
2018-11-10T10:37:37.870Z,9.47
2018-11-10T10:38:40.924Z,9.49
2018-11-10T10:39:45.031Z,9.49
2018-11-10T10:40:53.308Z,9.51
2018-11-10T10:41:56.114Z,9.57
2018-11-10T10:43:04.380Z,9.59
2018-11-10T10:44:14.310Z,9.59
2018-11-10T10:51:33.835Z,9.69
2018-11-10T10:52:40.724Z,9.67
2018-11-10T10:53:46.149Z,9.65
2018-11-10T10:54:52.946Z,9.65
2018-11-10T10:55:57.728Z,9.75
2018-11-10T10:57:04.271Z,9.76
2018-11-10T10:58:08.732Z,9.74
2018-11-10T10:59:11.936Z,9.73
2018-11-10T11:00:19.782Z,9.74
2018-11-10T11:01:28.866Z,9.73
2018-11-10T11:02:36.555Z,9.75
2018-11-10T11:03:44.814Z,9.78
2018-11-10T11:04:52.701Z,9.81
2018-11-10T11:06:01.406Z,9.81
2018-11-10T11:07:04.221Z,9.85
2018-11-10T11:08:09.136Z,9.87
2018-11-10T11:09:13.262Z,9.90
2018-11-10T11:10:17.558Z,9.95
2018-11-10T11:11:20.348Z,10.01
2018-11-10T11:12:23.389Z,10.03
2018-11-10T11:13:27.401Z,10.02
2018-11-10T11:14:30.145Z,10.04
2018-11-10T11:15:33.171Z,10.12
2018-11-10T11:16:36.981Z,10.17
2018-11-10T11:17:41.271Z,10.19
2018-11-10T11:18:44.472Z,10.19
2018-11-10T11:19:48.272Z,10.20
2018-11-10T11:21:05.504Z,10.20
2018-11-10T11:22:08.627Z,10.17
2018-11-10T11:23:12.550Z,10.23
2018-11-10T11:24:18.663Z,10.21
2018-11-10T11:25:22.394Z,10.24
2018-11-10T11:26:25.158Z,10.25
2018-11-10T11:27:28.346Z,10.25
2018-11-10T11:28:31.232Z,10.28
2018-11-10T11:29:35.669Z,10.29
2018-11-10T11:30:39.070Z,10.32
2018-11-10T11:44:47.372Z,10.26
2018-11-10T11:45:50.551Z,10.27
2018-11-10T11:46:54.275Z,10.27
2018-11-10T11:47:57.794Z,10.28
2018-11-10T11:49:02.748Z,10.31
2018-11-10T11:50:06.012Z,10.29
2018-11-10T11:51:09.809Z,10.29
2018-11-10T11:52:12.746Z,10.30
2018-11-10T11:53:15.965Z,10.30
2018-11-10T11:54:18.810Z,10.30
2018-11-10T11:55:22.053Z,10.34
2018-11-10T11:56:26.182Z,10.34
2018-11-10T11:57:29.591Z,10.35
2018-11-10T11:58:32.386Z,10.31
2018-11-10T11:59:35.156Z,10.30
2018-11-10T12:00:39.002Z,10.35
2018-11-10T12:01:42.634Z,10.34
2018-11-10T12:02:47.415Z,10.33
2018-11-10T12:03:50.798Z,10.35
2018-11-10T12:04:55.461Z,10.37
2018-11-10T12:05:59.020Z,10.36
2018-11-10T12:07:02.491Z,10.37
2018-11-10T12:08:08.158Z,10.38
2018-11-10T12:09:13.378Z,10.38
2018-11-10T12:10:17.865Z,10.41
2018-11-10T12:11:22.245Z,10.46
2018-11-10T12:12:32.000Z,10.44
2018-11-10T12:13:36.537Z,10.47
2018-11-10T12:14:42.049Z,10.49
2018-11-10T12:15:44.946Z,10.54
2018-11-10T12:16:47.912Z,10.56
2018-11-10T12:17:52.100Z,10.59
2018-11-10T12:18:55.605Z,10.63
2018-11-10T12:21:18.207Z,10.66
2018-11-10T12:22:24.482Z,10.68
2018-11-10T12:23:30.713Z,10.70
2018-11-10T12:24:34.486Z,10.72
2018-11-10T12:25:38.648Z,10.74
2018-11-10T12:26:42.665Z,10.76
2018-11-10T12:27:48.386Z,10.78
2018-11-10T12:28:52.165Z,10.79
2018-11-10T12:29:55.470Z,10.82
2018-11-10T12:31:00.318Z,10.88
2018-11-10T12:32:05.826Z,10.92
2018-11-10T12:33:08.581Z,10.95
2018-11-10T12:34:18.237Z,10.94
2018-11-10T12:35:24.051Z,10.96
2018-11-10T12:36:27.404Z,10.99
2018-11-10T12:37:31.219Z,11.04
2018-11-10T12:38:35.635Z,11.07
2018-11-10T12:39:43.710Z,11.10
2018-11-10T12:40:46.624Z,11.13
2018-11-10T12:41:53.405Z,11.17
2018-11-10T12:43:01.618Z,11.21
2018-11-10T12:44:07.350Z,11.25
2018-11-10T12:45:13.150Z,11.28
2018-11-10T12:46:15.929Z,11.30
2018-11-10T12:47:24.533Z,11.30
2018-11-10T12:48:30.724Z,11.32
2018-11-10T12:49:34.242Z,11.34
2018-11-10T12:50:37.761Z,11.37
2018-11-10T12:51:42.561Z,11.36
2018-11-10T12:52:47.608Z,11.35
2018-11-10T12:53:51.446Z,11.35
2018-11-10T12:55:00.114Z,11.36
2018-11-10T12:56:05.060Z,11.39
2018-11-10T12:57:11.582Z,11.40
2018-11-10T12:58:15.983Z,11.41
2018-11-10T12:59:19.315Z,11.40
2018-11-10T13:00:22.949Z,11.38
2018-11-10T13:01:25.788Z,11.38
2018-11-10T13:02:28.721Z,11.37
2018-11-10T13:03:35.127Z,11.37
2018-11-10T13:04:38.366Z,11.33
2018-11-10T13:05:42.405Z,11.32
2018-11-10T13:06:45.293Z,11.30
2018-11-10T13:07:48.682Z,11.29
2018-11-10T13:09:08.377Z,11.30
2018-11-10T13:10:13.335Z,11.31
2018-11-10T13:11:16.659Z,11.33
2018-11-10T13:12:20.777Z,11.46
2018-11-10T13:13:24.779Z,11.49
2018-11-10T13:14:28.672Z,11.43
2018-11-10T13:15:32.332Z,11.40
2018-11-10T13:16:35.156Z,11.37
2018-11-10T13:17:39.617Z,11.32
2018-11-10T13:18:46.081Z,11.31
2018-11-10T13:19:49.340Z,11.30
2018-11-10T13:20:52.086Z,11.30
2018-11-10T13:21:56.021Z,11.29
2018-11-10T13:22:59.473Z,11.29
2018-11-10T13:24:03.342Z,11.28
2018-11-10T13:25:08.072Z,11.32
2018-11-10T13:26:11.464Z,11.37
2018-11-10T13:27:15.611Z,11.37
2018-11-10T13:28:18.361Z,11.37
2018-11-10T13:29:21.756Z,11.39
2018-11-10T13:30:25.680Z,11.42
2018-11-10T13:31:30.118Z,11.43
2018-11-10T13:32:34.249Z,11.42
2018-11-10T13:33:37.235Z,11.47
2018-11-10T13:34:41.261Z,11.52
2018-11-10T13:35:44.152Z,11.52
2018-11-10T13:36:48.178Z,11.61
2018-11-10T13:37:51.049Z,11.62
2018-11-10T13:38:54.900Z,11.62
2018-11-10T13:39:57.844Z,11.63
2018-11-10T13:41:04.421Z,11.62
2018-11-10T13:42:08.051Z,11.67
2018-11-10T13:44:33.046Z,11.77
2018-11-10T13:45:35.823Z,11.76
2018-11-10T13:46:40.960Z,11.73
2018-11-10T13:47:58.393Z,11.70
2018-11-10T13:49:03.117Z,11.72
2018-11-10T13:50:09.529Z,11.74
2018-11-10T13:51:15.784Z,11.69
2018-11-10T13:52:23.746Z,11.67
2018-11-10T13:53:27.521Z,11.66
2018-11-10T13:54:32.820Z,11.64
2018-11-10T13:57:06.692Z,11.62
2018-11-10T13:58:11.332Z,11.62
2018-11-10T13:59:14.253Z,11.61
2018-11-10T14:00:19.043Z,11.59
2018-11-10T14:01:22.584Z,11.62
2018-11-10T14:02:26.358Z,11.62
2018-11-10T14:03:33.218Z,11.66
2018-11-10T14:04:37.568Z,11.64
2018-11-10T14:11:43.067Z,11.62
2018-11-10T14:12:47.214Z,11.55
2018-11-10T14:13:52.765Z,11.52
2018-11-10T14:14:57.596Z,11.52
2018-11-10T14:17:15.728Z,11.51
2018-11-10T14:18:21.768Z,11.54
2018-11-10T14:19:26.627Z,11.53
2018-11-10T14:20:30.751Z,11.50
2018-11-10T14:21:34.481Z,11.50
2018-11-10T14:22:40.547Z,11.50
2018-11-10T14:23:45.856Z,11.51
2018-11-10T14:24:50.335Z,11.48
2018-11-10T14:25:53.099Z,11.46
2018-11-10T14:26:56.479Z,11.44
2018-11-10T14:28:00.262Z,11.42
2018-11-10T14:29:03.294Z,11.42
2018-11-10T14:30:07.370Z,11.39
2018-11-10T14:31:11.847Z,11.39
2018-11-10T14:32:15.344Z,11.41
2018-11-10T14:33:18.238Z,11.39
2018-11-10T14:34:21.019Z,11.37
2018-11-10T14:35:24.478Z,11.36
2018-11-10T14:36:27.253Z,11.37
2018-11-10T14:37:31.524Z,11.38
2018-11-10T14:38:39.301Z,11.37
2018-11-10T14:39:43.929Z,11.39
2018-11-10T14:40:50.211Z,11.36
2018-11-10T14:41:53.680Z,11.34
2018-11-10T14:42:57.070Z,11.33
2018-11-10T14:44:03.147Z,11.33
2018-11-10T14:45:07.048Z,11.31
2018-11-10T14:46:10.965Z,11.32
2018-11-10T14:47:14.409Z,11.30
2018-11-10T14:48:18.961Z,11.28
2018-11-10T14:49:22.855Z,11.28
2018-11-10T14:50:25.920Z,11.25
2018-11-10T14:51:30.546Z,11.25
2018-11-10T14:52:34.502Z,11.23
2018-11-10T15:35:30.036Z,11.14
2018-11-10T15:36:32.799Z,11.10
2018-11-10T15:37:36.370Z,11.13